sensor_id;sensor_type;location;lat;lon;timestamp;P1;durP1;ratioP1;P2;durP2;ratioP2
24801;SDS011;12898;50.520;12.152;2024-02-21T00:00:53;18.73;;;6.37;;
24801;SDS011;12898;50.520;12.152;2024-02-21T00:03:18;17.23;;;5.57;;
24801;SDS011;12898;50.520;12.152;2024-02-21T00:05:45;14.20;;;5.30;;
24801;SDS011;12898;50.520;12.152;2024-02-21T00:08:10;16.80;;;5.30;;
24801;SDS011;12898;50.520;12.152;2024-02-21T00:10:36;16.43;;;5.87;;
24801;SDS011;12898;50.520;12.152;2024-02-21T00:13:02;20.80;;;6.73;;
24801;SDS011;12898;50.520;12.152;2024-02-21T00:15:28;21.10;;;6.40;;
24801;SDS011;12898;50.520;12.152;2024-02-21T00:17:54;17.57;;;5.90;;
24801;SDS011;12898;50.520;12.152;2024-02-21T00:20:19;17.10;;;5.95;;
24801;SDS011;12898;50.520;12.152;2024-02-21T00:22:45;18.00;;;6.00;;
24801;SDS011;12898;50.520;12.152;2024-02-21T00:25:11;19.95;;;5.55;;
24801;SDS011;12898;50.520;12.152;2024-02-21T00:27:37;16.90;;;5.60;;
24801;SDS011;12898;50.520;12.152;2024-02-21T00:30:04;20.63;;;5.93;;
24801;SDS011;12898;50.520;12.152;2024-02-21T00:32:31;15.07;;;5.70;;
24801;SDS011;12898;50.520;12.152;2024-02-21T00:34:59;20.00;;;5.77;;
24801;SDS011;12898;50.520;12.152;2024-02-21T00:37:25;20.10;;;5.50;;
24801;SDS011;12898;50.520;12.152;2024-02-21T00:39:50;23.00;;;6.03;;
24801;SDS011;12898;50.520;12.152;2024-02-21T00:42:16;19.23;;;6.53;;
24801;SDS011;12898;50.520;12.152;2024-02-21T00:44:43;19.03;;;5.40;;
24801;SDS011;12898;50.520;12.152;2024-02-21T00:47:09;22.10;;;6.33;;
24801;SDS011;12898;50.520;12.152;2024-02-21T00:49:35;17.27;;;5.97;;
24801;SDS011;12898;50.520;12.152;2024-02-21T00:52:01;16.37;;;5.60;;
24801;SDS011;12898;50.520;12.152;2024-02-21T00:54:27;18.40;;;5.90;;
24801;SDS011;12898;50.520;12.152;2024-02-21T00:56:52;19.40;;;6.07;;
24801;SDS011;12898;50.520;12.152;2024-02-21T00:59:18;19.97;;;6.20;;
24801;SDS011;12898;50.520;12.152;2024-02-21T01:01:45;16.70;;;6.00;;
24801;SDS011;12898;50.520;12.152;2024-02-21T01:04:11;18.60;;;6.03;;
24801;SDS011;12898;50.520;12.152;2024-02-21T01:06:36;20.47;;;6.43;;
24801;SDS011;12898;50.520;12.152;2024-02-21T01:09:02;20.13;;;6.80;;
24801;SDS011;12898;50.520;12.152;2024-02-21T01:11:28;19.60;;;6.47;;
24801;SDS011;12898;50.520;12.152;2024-02-21T01:13:55;14.70;;;5.78;;
24801;SDS011;12898;50.520;12.152;2024-02-21T01:16:20;17.70;;;6.87;;
24801;SDS011;12898;50.520;12.152;2024-02-21T01:18:46;19.63;;;5.90;;
24801;SDS011;12898;50.520;12.152;2024-02-21T01:21:12;20.70;;;6.00;;
24801;SDS011;12898;50.520;12.152;2024-02-21T01:23:38;18.63;;;6.20;;
24801;SDS011;12898;50.520;12.152;2024-02-21T01:26:05;19.90;;;7.13;;
24801;SDS011;12898;50.520;12.152;2024-02-21T01:28:33;19.80;;;7.55;;
24801;SDS011;12898;50.520;12.152;2024-02-21T01:31:00;20.53;;;6.40;;
24801;SDS011;12898;50.520;12.152;2024-02-21T01:33:25;19.13;;;6.40;;
24801;SDS011;12898;50.520;12.152;2024-02-21T01:35:51;16.57;;;6.60;;
24801;SDS011;12898;50.520;12.152;2024-02-21T01:38:17;19.73;;;5.83;;
24801;SDS011;12898;50.520;12.152;2024-02-21T01:40:43;21.33;;;6.93;;
24801;SDS011;12898;50.520;12.152;2024-02-21T01:43:15;18.55;;;6.22;;
24801;SDS011;12898;50.520;12.152;2024-02-21T01:45:43;20.67;;;6.83;;
24801;SDS011;12898;50.520;12.152;2024-02-21T01:48:12;14.32;;;5.70;;
24801;SDS011;12898;50.520;12.152;2024-02-21T01:50:38;19.13;;;6.17;;
24801;SDS011;12898;50.520;12.152;2024-02-21T01:53:04;18.23;;;6.00;;
24801;SDS011;12898;50.520;12.152;2024-02-21T01:55:31;17.30;;;6.97;;
24801;SDS011;12898;50.520;12.152;2024-02-21T01:57:57;23.03;;;6.80;;
24801;SDS011;12898;50.520;12.152;2024-02-21T02:00:23;20.47;;;6.43;;
24801;SDS011;12898;50.520;12.152;2024-02-21T02:02:49;15.70;;;5.87;;
24801;SDS011;12898;50.520;12.152;2024-02-21T02:05:16;17.83;;;6.30;;
24801;SDS011;12898;50.520;12.152;2024-02-21T02:07:43;20.67;;;6.40;;
24801;SDS011;12898;50.520;12.152;2024-02-21T02:10:09;23.70;;;6.83;;
24801;SDS011;12898;50.520;12.152;2024-02-21T02:12:35;15.97;;;5.90;;
24801;SDS011;12898;50.520;12.152;2024-02-21T02:15:02;20.43;;;6.73;;
24801;SDS011;12898;50.520;12.152;2024-02-21T02:17:32;16.53;;;5.83;;
24801;SDS011;12898;50.520;12.152;2024-02-21T02:19:57;22.48;;;6.40;;
24801;SDS011;12898;50.520;12.152;2024-02-21T02:22:25;20.95;;;6.13;;
24801;SDS011;12898;50.520;12.152;2024-02-21T02:24:54;20.00;;;6.80;;
24801;SDS011;12898;50.520;12.152;2024-02-21T02:27:20;20.57;;;6.50;;
24801;SDS011;12898;50.520;12.152;2024-02-21T02:29:47;18.10;;;6.57;;
24801;SDS011;12898;50.520;12.152;2024-02-21T02:32:14;20.67;;;6.50;;
24801;SDS011;12898;50.520;12.152;2024-02-21T02:34:40;17.80;;;6.50;;
24801;SDS011;12898;50.520;12.152;2024-02-21T02:37:05;18.45;;;6.47;;
24801;SDS011;12898;50.520;12.152;2024-02-21T02:39:31;14.67;;;5.80;;
24801;SDS011;12898;50.520;12.152;2024-02-21T02:41:57;18.13;;;6.70;;
24801;SDS011;12898;50.520;12.152;2024-02-21T02:44:22;21.08;;;6.57;;
24801;SDS011;12898;50.520;12.152;2024-02-21T02:46:49;21.83;;;6.87;;
24801;SDS011;12898;50.520;12.152;2024-02-21T02:49:14;17.90;;;6.07;;
24801;SDS011;12898;50.520;12.152;2024-02-21T02:51:43;18.63;;;7.47;;
24801;SDS011;12898;50.520;12.152;2024-02-21T02:54:09;19.63;;;6.43;;
24801;SDS011;12898;50.520;12.152;2024-02-21T02:56:35;19.47;;;6.30;;
24801;SDS011;12898;50.520;12.152;2024-02-21T02:59:01;19.90;;;6.10;;
24801;SDS011;12898;50.520;12.152;2024-02-21T03:01:28;19.13;;;6.23;;
24801;SDS011;12898;50.520;12.152;2024-02-21T03:03:54;16.40;;;5.80;;
24801;SDS011;12898;50.520;12.152;2024-02-21T03:06:20;18.80;;;5.60;;
24801;SDS011;12898;50.520;12.152;2024-02-21T03:08:45;16.83;;;6.17;;
24801;SDS011;12898;50.520;12.152;2024-02-21T03:11:11;22.33;;;7.73;;
24801;SDS011;12898;50.520;12.152;2024-02-21T03:13:37;18.97;;;6.43;;
24801;SDS011;12898;50.520;12.152;2024-02-21T03:16:03;19.47;;;6.10;;
24801;SDS011;12898;50.520;12.152;2024-02-21T03:18:29;20.67;;;6.50;;
24801;SDS011;12898;50.520;12.152;2024-02-21T03:20:55;18.40;;;6.27;;
24801;SDS011;12898;50.520;12.152;2024-02-21T03:23:20;18.20;;;6.03;;
24801;SDS011;12898;50.520;12.152;2024-02-21T03:25:46;14.90;;;6.03;;
24801;SDS011;12898;50.520;12.152;2024-02-21T03:28:12;20.97;;;6.90;;
24801;SDS011;12898;50.520;12.152;2024-02-21T03:30:38;20.37;;;6.33;;
24801;SDS011;12898;50.520;12.152;2024-02-21T03:33:03;19.93;;;5.87;;
24801;SDS011;12898;50.520;12.152;2024-02-21T03:35:29;23.03;;;7.20;;
24801;SDS011;12898;50.520;12.152;2024-02-21T03:37:55;15.80;;;5.83;;
24801;SDS011;12898;50.520;12.152;2024-02-21T03:40:21;18.70;;;6.30;;
24801;SDS011;12898;50.520;12.152;2024-02-21T03:42:47;17.20;;;5.77;;
24801;SDS011;12898;50.520;12.152;2024-02-21T03:45:12;17.25;;;5.95;;
24801;SDS011;12898;50.520;12.152;2024-02-21T03:47:38;18.00;;;6.60;;
24801;SDS011;12898;50.520;12.152;2024-02-21T03:50:05;18.30;;;5.87;;
24801;SDS011;12898;50.520;12.152;2024-02-21T03:52:31;17.27;;;6.20;;
24801;SDS011;12898;50.520;12.152;2024-02-21T03:54:57;18.43;;;5.67;;
24801;SDS011;12898;50.520;12.152;2024-02-21T03:57:23;20.77;;;6.47;;
24801;SDS011;12898;50.520;12.152;2024-02-21T03:59:51;17.77;;;6.13;;
24801;SDS011;12898;50.520;12.152;2024-02-21T04:02:17;20.23;;;6.17;;
24801;SDS011;12898;50.520;12.152;2024-02-21T04:04:43;18.03;;;6.17;;
24801;SDS011;12898;50.520;12.152;2024-02-21T04:07:13;15.03;;;5.93;;
24801;SDS011;12898;50.520;12.152;2024-02-21T04:09:39;18.83;;;6.30;;
24801;SDS011;12898;50.520;12.152;2024-02-21T04:12:05;17.42;;;6.32;;
24801;SDS011;12898;50.520;12.152;2024-02-21T04:14:33;19.60;;;6.73;;
24801;SDS011;12898;50.520;12.152;2024-02-21T04:16:59;15.60;;;6.20;;
24801;SDS011;12898;50.520;12.152;2024-02-21T04:19:25;17.17;;;5.80;;
24801;SDS011;12898;50.520;12.152;2024-02-21T04:21:51;16.07;;;5.60;;
24801;SDS011;12898;50.520;12.152;2024-02-21T04:24:17;20.77;;;6.93;;
24801;SDS011;12898;50.520;12.152;2024-02-21T04:26:43;15.57;;;5.93;;
24801;SDS011;12898;50.520;12.152;2024-02-21T04:29:08;17.07;;;5.57;;
24801;SDS011;12898;50.520;12.152;2024-02-21T04:31:35;17.77;;;6.37;;
24801;SDS011;12898;50.520;12.152;2024-02-21T04:34:01;20.30;;;5.63;;
24801;SDS011;12898;50.520;12.152;2024-02-21T04:36:27;16.95;;;5.30;;
24801;SDS011;12898;50.520;12.152;2024-02-21T04:38:53;18.13;;;5.80;;
24801;SDS011;12898;50.520;12.152;2024-02-21T04:41:19;17.83;;;5.10;;
24801;SDS011;12898;50.520;12.152;2024-02-21T04:43:47;19.50;;;5.60;;
24801;SDS011;12898;50.520;12.152;2024-02-21T04:46:14;21.40;;;6.17;;
24801;SDS011;12898;50.520;12.152;2024-02-21T04:48:40;16.50;;;5.47;;
24801;SDS011;12898;50.520;12.152;2024-02-21T04:51:06;14.50;;;5.57;;
24801;SDS011;12898;50.520;12.152;2024-02-21T04:53:32;16.53;;;5.20;;
24801;SDS011;12898;50.520;12.152;2024-02-21T04:55:57;14.07;;;5.47;;
24801;SDS011;12898;50.520;12.152;2024-02-21T04:58:23;19.47;;;6.67;;
24801;SDS011;12898;50.520;12.152;2024-02-21T05:00:49;15.43;;;5.07;;
24801;SDS011;12898;50.520;12.152;2024-02-21T05:03:14;13.20;;;5.10;;
24801;SDS011;12898;50.520;12.152;2024-02-21T05:05:40;16.77;;;6.07;;
24801;SDS011;12898;50.520;12.152;2024-02-21T05:08:06;20.13;;;5.80;;
24801;SDS011;12898;50.520;12.152;2024-02-21T05:10:32;13.43;;;5.57;;
24801;SDS011;12898;50.520;12.152;2024-02-21T05:12:57;17.27;;;5.57;;
24801;SDS011;12898;50.520;12.152;2024-02-21T05:15:23;19.13;;;6.50;;
24801;SDS011;12898;50.520;12.152;2024-02-21T05:17:49;17.27;;;6.37;;
24801;SDS011;12898;50.520;12.152;2024-02-21T05:20:15;16.73;;;6.10;;
24801;SDS011;12898;50.520;12.152;2024-02-21T05:22:40;22.93;;;6.90;;
24801;SDS011;12898;50.520;12.152;2024-02-21T05:25:07;17.17;;;5.50;;
24801;SDS011;12898;50.520;12.152;2024-02-21T05:27:33;16.23;;;5.70;;
24801;SDS011;12898;50.520;12.152;2024-02-21T05:30:00;19.87;;;7.00;;
24801;SDS011;12898;50.520;12.152;2024-02-21T05:32:26;17.53;;;6.33;;
24801;SDS011;12898;50.520;12.152;2024-02-21T05:34:52;20.87;;;6.77;;
24801;SDS011;12898;50.520;12.152;2024-02-21T05:37:18;18.83;;;6.93;;
24801;SDS011;12898;50.520;12.152;2024-02-21T05:39:43;17.47;;;5.93;;
24801;SDS011;12898;50.520;12.152;2024-02-21T05:42:09;16.20;;;6.00;;
24801;SDS011;12898;50.520;12.152;2024-02-21T05:44:35;15.03;;;6.97;;
24801;SDS011;12898;50.520;12.152;2024-02-21T05:47:01;18.80;;;6.07;;
24801;SDS011;12898;50.520;12.152;2024-02-21T05:49:26;22.60;;;7.50;;
24801;SDS011;12898;50.520;12.152;2024-02-21T05:51:52;18.90;;;7.27;;
24801;SDS011;12898;50.520;12.152;2024-02-21T05:54:18;18.03;;;6.50;;
24801;SDS011;12898;50.520;12.152;2024-02-21T05:56:44;17.53;;;6.70;;
24801;SDS011;12898;50.520;12.152;2024-02-21T05:59:11;16.03;;;6.10;;
24801;SDS011;12898;50.520;12.152;2024-02-21T06:01:36;17.63;;;6.70;;
24801;SDS011;12898;50.520;12.152;2024-02-21T06:04:02;20.00;;;6.83;;
24801;SDS011;12898;50.520;12.152;2024-02-21T06:06:29;21.17;;;6.60;;
24801;SDS011;12898;50.520;12.152;2024-02-21T06:08:55;21.00;;;6.77;;
24801;SDS011;12898;50.520;12.152;2024-02-21T06:11:22;18.87;;;6.27;;
24801;SDS011;12898;50.520;12.152;2024-02-21T06:13:47;15.23;;;6.40;;
24801;SDS011;12898;50.520;12.152;2024-02-21T06:16:13;16.63;;;6.97;;
24801;SDS011;12898;50.520;12.152;2024-02-21T06:18:39;20.13;;;6.82;;
24801;SDS011;12898;50.520;12.152;2024-02-21T06:21:05;17.40;;;6.20;;
24801;SDS011;12898;50.520;12.152;2024-02-21T06:23:30;20.00;;;7.67;;
24801;SDS011;12898;50.520;12.152;2024-02-21T06:25:57;18.65;;;6.30;;
24801;SDS011;12898;50.520;12.152;2024-02-21T06:28:22;15.57;;;6.10;;
24801;SDS011;12898;50.520;12.152;2024-02-21T06:30:48;18.60;;;7.70;;
24801;SDS011;12898;50.520;12.152;2024-02-21T06:33:14;16.27;;;7.23;;
24801;SDS011;12898;50.520;12.152;2024-02-21T06:35:40;20.57;;;6.90;;
24801;SDS011;12898;50.520;12.152;2024-02-21T06:38:07;22.80;;;7.87;;
24801;SDS011;12898;50.520;12.152;2024-02-21T06:40:33;19.10;;;7.00;;
24801;SDS011;12898;50.520;12.152;2024-02-21T06:43:04;19.10;;;7.17;;
24801;SDS011;12898;50.520;12.152;2024-02-21T06:45:30;19.40;;;6.47;;
24801;SDS011;12898;50.520;12.152;2024-02-21T06:47:55;22.10;;;7.43;;
24801;SDS011;12898;50.520;12.152;2024-02-21T06:50:21;19.67;;;7.40;;
24801;SDS011;12898;50.520;12.152;2024-02-21T06:52:47;19.00;;;6.18;;
24801;SDS011;12898;50.520;12.152;2024-02-21T06:55:13;20.87;;;7.17;;
24801;SDS011;12898;50.520;12.152;2024-02-21T06:57:38;17.07;;;6.93;;
24801;SDS011;12898;50.520;12.152;2024-02-21T07:00:04;17.30;;;6.60;;
24801;SDS011;12898;50.520;12.152;2024-02-21T07:02:33;19.27;;;6.83;;
24801;SDS011;12898;50.520;12.152;2024-02-21T07:04:59;20.37;;;7.30;;
24801;SDS011;12898;50.520;12.152;2024-02-21T07:07:25;19.40;;;6.47;;
24801;SDS011;12898;50.520;12.152;2024-02-21T07:09:51;15.40;;;5.37;;
24801;SDS011;12898;50.520;12.152;2024-02-21T07:12:18;14.30;;;5.97;;
24801;SDS011;12898;50.520;12.152;2024-02-21T07:14:44;13.35;;;5.70;;
24801;SDS011;12898;50.520;12.152;2024-02-21T07:17:10;15.13;;;6.17;;
24801;SDS011;12898;50.520;12.152;2024-02-21T07:19:35;17.02;;;6.35;;
24801;SDS011;12898;50.520;12.152;2024-02-21T07:22:01;17.67;;;5.70;;
24801;SDS011;12898;50.520;12.152;2024-02-21T07:24:27;14.80;;;5.63;;
24801;SDS011;12898;50.520;12.152;2024-02-21T07:26:53;17.17;;;6.60;;
24801;SDS011;12898;50.520;12.152;2024-02-21T07:29:19;16.93;;;6.47;;
24801;SDS011;12898;50.520;12.152;2024-02-21T07:31:45;13.93;;;5.53;;
24801;SDS011;12898;50.520;12.152;2024-02-21T07:34:10;17.40;;;5.57;;
24801;SDS011;12898;50.520;12.152;2024-02-21T07:36:36;13.73;;;5.38;;
24801;SDS011;12898;50.520;12.152;2024-02-21T07:39:04;18.73;;;5.93;;
24801;SDS011;12898;50.520;12.152;2024-02-21T07:41:31;17.37;;;6.00;;
24801;SDS011;12898;50.520;12.152;2024-02-21T07:43:56;13.45;;;5.75;;
24801;SDS011;12898;50.520;12.152;2024-02-21T07:46:22;19.50;;;6.20;;
24801;SDS011;12898;50.520;12.152;2024-02-21T07:48:48;14.23;;;5.67;;
24801;SDS011;12898;50.520;12.152;2024-02-21T07:51:15;13.63;;;5.60;;
24801;SDS011;12898;50.520;12.152;2024-02-21T07:53:44;15.20;;;5.40;;
24801;SDS011;12898;50.520;12.152;2024-02-21T07:56:14;14.73;;;5.47;;
24801;SDS011;12898;50.520;12.152;2024-02-21T07:58:41;19.50;;;5.77;;
24801;SDS011;12898;50.520;12.152;2024-02-21T08:01:07;15.80;;;5.27;;
24801;SDS011;12898;50.520;12.152;2024-02-21T08:03:33;17.10;;;5.23;;
24801;SDS011;12898;50.520;12.152;2024-02-21T08:05:59;14.05;;;5.40;;
24801;SDS011;12898;50.520;12.152;2024-02-21T08:08:25;14.95;;;5.40;;
24801;SDS011;12898;50.520;12.152;2024-02-21T08:10:51;13.83;;;5.27;;
24801;SDS011;12898;50.520;12.152;2024-02-21T08:13:17;15.07;;;4.83;;
24801;SDS011;12898;50.520;12.152;2024-02-21T08:15:43;14.90;;;4.90;;
24801;SDS011;12898;50.520;12.152;2024-02-21T08:18:09;12.55;;;4.60;;
24801;SDS011;12898;50.520;12.152;2024-02-21T08:20:34;16.00;;;5.13;;
24801;SDS011;12898;50.520;12.152;2024-02-21T08:23:00;13.68;;;5.05;;
24801;SDS011;12898;50.520;12.152;2024-02-21T08:25:27;13.63;;;4.72;;
24801;SDS011;12898;50.520;12.152;2024-02-21T08:27:57;13.27;;;4.88;;
24801;SDS011;12898;50.520;12.152;2024-02-21T08:30:24;15.63;;;5.15;;
24801;SDS011;12898;50.520;12.152;2024-02-21T08:32:50;15.43;;;5.70;;
24801;SDS011;12898;50.520;12.152;2024-02-21T08:35:16;18.10;;;6.20;;
24801;SDS011;12898;50.520;12.152;2024-02-21T08:37:47;19.08;;;4.95;;
24801;SDS011;12898;50.520;12.152;2024-02-21T08:40:13;12.95;;;4.97;;
24801;SDS011;12898;50.520;12.152;2024-02-21T08:42:42;12.18;;;4.22;;
24801;SDS011;12898;50.520;12.152;2024-02-21T08:45:08;11.98;;;4.80;;
24801;SDS011;12898;50.520;12.152;2024-02-21T08:47:35;14.88;;;5.25;;
24801;SDS011;12898;50.520;12.152;2024-02-21T08:50:04;14.07;;;4.65;;
24801;SDS011;12898;50.520;12.152;2024-02-21T08:52:30;14.85;;;4.80;;
24801;SDS011;12898;50.520;12.152;2024-02-21T08:54:56;16.13;;;4.75;;
24801;SDS011;12898;50.520;12.152;2024-02-21T08:57:22;16.38;;;5.07;;
24801;SDS011;12898;50.520;12.152;2024-02-21T08:59:48;13.63;;;4.65;;
24801;SDS011;12898;50.520;12.152;2024-02-21T09:02:14;16.45;;;4.85;;
24801;SDS011;12898;50.520;12.152;2024-02-21T09:04:43;14.57;;;5.65;;
24801;SDS011;12898;50.520;12.152;2024-02-21T09:07:09;13.10;;;4.88;;
24801;SDS011;12898;50.520;12.152;2024-02-21T09:09:35;11.90;;;4.50;;
24801;SDS011;12898;50.520;12.152;2024-02-21T09:12:03;12.77;;;4.57;;
24801;SDS011;12898;50.520;12.152;2024-02-21T09:14:32;14.65;;;4.30;;
24801;SDS011;12898;50.520;12.152;2024-02-21T09:16:58;16.17;;;4.53;;
24801;SDS011;12898;50.520;12.152;2024-02-21T09:19:24;12.93;;;3.75;;
24801;SDS011;12898;50.520;12.152;2024-02-21T09:21:50;14.82;;;5.47;;
24801;SDS011;12898;50.520;12.152;2024-02-21T09:24:15;12.55;;;4.20;;
24801;SDS011;12898;50.520;12.152;2024-02-21T09:26:42;14.38;;;4.85;;
24801;SDS011;12898;50.520;12.152;2024-02-21T09:29:09;13.93;;;5.03;;
24801;SDS011;12898;50.520;12.152;2024-02-21T09:31:34;13.85;;;4.35;;
24801;SDS011;12898;50.520;12.152;2024-02-21T09:34:00;12.70;;;3.88;;
24801;SDS011;12898;50.520;12.152;2024-02-21T09:36:27;14.23;;;4.00;;
24801;SDS011;12898;50.520;12.152;2024-02-21T09:38:53;10.07;;;4.03;;
24801;SDS011;12898;50.520;12.152;2024-02-21T09:41:25;11.48;;;4.13;;
24801;SDS011;12898;50.520;12.152;2024-02-21T09:43:52;16.95;;;4.78;;
24801;SDS011;12898;50.520;12.152;2024-02-21T09:46:19;12.25;;;3.95;;
24801;SDS011;12898;50.520;12.152;2024-02-21T09:49:07;14.93;;;4.38;;
24801;SDS011;12898;50.520;12.152;2024-02-21T09:52:00;14.70;;;3.60;;
24801;SDS011;12898;50.520;12.152;2024-02-21T09:54:30;11.13;;;3.97;;
24801;SDS011;12898;50.520;12.152;2024-02-21T09:56:56;12.43;;;3.78;;
24801;SDS011;12898;50.520;12.152;2024-02-21T09:59:22;12.43;;;3.90;;
24801;SDS011;12898;50.520;12.152;2024-02-21T10:01:49;9.88;;;3.53;;
24801;SDS011;12898;50.520;12.152;2024-02-21T10:04:16;8.55;;;3.15;;
24801;SDS011;12898;50.520;12.152;2024-02-21T10:06:41;12.07;;;3.55;;
24801;SDS011;12898;50.520;12.152;2024-02-21T10:09:08;9.95;;;3.80;;
24801;SDS011;12898;50.520;12.152;2024-02-21T10:11:33;13.73;;;3.95;;
24801;SDS011;12898;50.520;12.152;2024-02-21T10:14:06;12.23;;;3.92;;
24801;SDS011;12898;50.520;12.152;2024-02-21T10:16:32;14.27;;;4.47;;
24801;SDS011;12898;50.520;12.152;2024-02-21T10:18:59;9.00;;;3.45;;
24801;SDS011;12898;50.520;12.152;2024-02-21T10:21:25;9.43;;;3.38;;
24801;SDS011;12898;50.520;12.152;2024-02-21T10:23:51;13.63;;;4.20;;
24801;SDS011;12898;50.520;12.152;2024-02-21T10:26:20;10.88;;;3.22;;
24801;SDS011;12898;50.520;12.152;2024-02-21T10:28:46;13.32;;;3.67;;
24801;SDS011;12898;50.520;12.152;2024-02-21T10:31:28;13.15;;;3.92;;
24801;SDS011;12898;50.520;12.152;2024-02-21T10:33:57;8.80;;;3.60;;
24801;SDS011;12898;50.520;12.152;2024-02-21T10:36:25;10.73;;;3.72;;
24801;SDS011;12898;50.520;12.152;2024-02-21T10:38:51;10.13;;;3.70;;
24801;SDS011;12898;50.520;12.152;2024-02-21T10:41:19;12.63;;;4.05;;
24801;SDS011;12898;50.520;12.152;2024-02-21T10:43:47;8.63;;;3.10;;
24801;SDS011;12898;50.520;12.152;2024-02-21T10:46:18;14.48;;;4.00;;
24801;SDS011;12898;50.520;12.152;2024-02-21T10:48:46;11.68;;;3.53;;
24801;SDS011;12898;50.520;12.152;2024-02-21T10:51:16;11.77;;;3.72;;
24801;SDS011;12898;50.520;12.152;2024-02-21T10:56:58;11.68;;;3.60;;
24801;SDS011;12898;50.520;12.152;2024-02-21T10:59:28;11.70;;;3.53;;
24801;SDS011;12898;50.520;12.152;2024-02-21T11:01:57;10.43;;;3.22;;
24801;SDS011;12898;50.520;12.152;2024-02-21T11:04:23;10.73;;;3.53;;
24801;SDS011;12898;50.520;12.152;2024-02-21T11:06:50;9.10;;;3.15;;
24801;SDS011;12898;50.520;12.152;2024-02-21T11:09:16;9.02;;;3.50;;
24801;SDS011;12898;50.520;12.152;2024-02-21T11:11:45;11.13;;;3.90;;
24801;SDS011;12898;50.520;12.152;2024-02-21T11:14:17;10.15;;;3.20;;
24801;SDS011;12898;50.520;12.152;2024-02-21T11:16:44;9.77;;;3.50;;
24801;SDS011;12898;50.520;12.152;2024-02-21T11:19:20;9.18;;;3.50;;
24801;SDS011;12898;50.520;12.152;2024-02-21T11:21:48;10.00;;;4.07;;
24801;SDS011;12898;50.520;12.152;2024-02-21T11:24:25;8.95;;;3.30;;
24801;SDS011;12898;50.520;12.152;2024-02-21T11:27:08;9.63;;;3.10;;
24801;SDS011;12898;50.520;12.152;2024-02-21T11:29:44;11.05;;;3.17;;
24801;SDS011;12898;50.520;12.152;2024-02-21T11:32:14;9.75;;;3.05;;
24801;SDS011;12898;50.520;12.152;2024-02-21T11:34:41;10.57;;;3.15;;
24801;SDS011;12898;50.520;12.152;2024-02-21T11:37:31;10.45;;;3.42;;
24801;SDS011;12898;50.520;12.152;2024-02-21T11:39:59;9.75;;;3.05;;
24801;SDS011;12898;50.520;12.152;2024-02-21T11:42:26;9.32;;;3.13;;
24801;SDS011;12898;50.520;12.152;2024-02-21T11:44:52;10.32;;;3.67;;
24801;SDS011;12898;50.520;12.152;2024-02-21T11:47:18;7.80;;;2.97;;
24801;SDS011;12898;50.520;12.152;2024-02-21T11:49:45;7.50;;;3.22;;
24801;SDS011;12898;50.520;12.152;2024-02-21T11:52:14;12.50;;;3.05;;
24801;SDS011;12898;50.520;12.152;2024-02-21T11:54:40;9.27;;;3.15;;
24801;SDS011;12898;50.520;12.152;2024-02-21T11:57:06;6.85;;;2.90;;
24801;SDS011;12898;50.520;12.152;2024-02-21T11:59:32;12.27;;;3.30;;
24801;SDS011;12898;50.520;12.152;2024-02-21T12:01:59;9.73;;;3.38;;
24801;SDS011;12898;50.520;12.152;2024-02-21T12:04:28;11.82;;;3.40;;
24801;SDS011;12898;50.520;12.152;2024-02-21T12:06:56;8.10;;;2.92;;
24801;SDS011;12898;50.520;12.152;2024-02-21T12:09:23;14.57;;;3.55;;
24801;SDS011;12898;50.520;12.152;2024-02-21T12:12:05;7.68;;;2.80;;
24801;SDS011;12898;50.520;12.152;2024-02-21T12:14:32;11.93;;;3.42;;
24801;SDS011;12898;50.520;12.152;2024-02-21T12:17:00;10.38;;;2.90;;
24801;SDS011;12898;50.520;12.152;2024-02-21T12:19:29;8.80;;;3.08;;
24801;SDS011;12898;50.520;12.152;2024-02-21T12:21:56;8.80;;;2.65;;
24801;SDS011;12898;50.520;12.152;2024-02-21T12:24:27;10.95;;;2.80;;
24801;SDS011;12898;50.520;12.152;2024-02-21T12:26:54;9.57;;;2.90;;
24801;SDS011;12898;50.520;12.152;2024-02-21T12:29:21;9.20;;;2.33;;
24801;SDS011;12898;50.520;12.152;2024-02-21T12:31:49;10.32;;;2.80;;
24801;SDS011;12898;50.520;12.152;2024-02-21T12:34:16;12.02;;;2.55;;
24801;SDS011;12898;50.520;12.152;2024-02-21T12:36:42;7.35;;;2.50;;
24801;SDS011;12898;50.520;12.152;2024-02-21T12:39:09;8.70;;;2.80;;
24801;SDS011;12898;50.520;12.152;2024-02-21T12:41:36;8.50;;;2.55;;
24801;SDS011;12898;50.520;12.152;2024-02-21T12:44:09;10.32;;;2.90;;
24801;SDS011;12898;50.520;12.152;2024-02-21T12:46:39;12.60;;;3.33;;
24801;SDS011;12898;50.520;12.152;2024-02-21T12:49:05;7.82;;;2.30;;
24801;SDS011;12898;50.520;12.152;2024-02-21T12:51:33;8.75;;;2.63;;
24801;SDS011;12898;50.520;12.152;2024-02-21T12:53:59;10.70;;;3.13;;
24801;SDS011;12898;50.520;12.152;2024-02-21T12:56:25;10.38;;;2.83;;
24801;SDS011;12898;50.520;12.152;2024-02-21T12:58:52;9.20;;;2.58;;
24801;SDS011;12898;50.520;12.152;2024-02-21T13:01:18;9.82;;;2.45;;
24801;SDS011;12898;50.520;12.152;2024-02-21T13:03:44;8.25;;;2.42;;
24801;SDS011;12898;50.520;12.152;2024-02-21T13:06:11;7.50;;;2.70;;
24801;SDS011;12898;50.520;12.152;2024-02-21T13:08:38;9.70;;;2.92;;
24801;SDS011;12898;50.520;12.152;2024-02-21T13:11:05;8.02;;;2.35;;
24801;SDS011;12898;50.520;12.152;2024-02-21T13:13:30;6.78;;;2.20;;
24801;SDS011;12898;50.520;12.152;2024-02-21T13:16:00;8.45;;;2.22;;
24801;SDS011;12898;50.520;12.152;2024-02-21T13:18:26;9.10;;;2.50;;
24801;SDS011;12898;50.520;12.152;2024-02-21T13:20:51;11.10;;;2.92;;
24801;SDS011;12898;50.520;12.152;2024-02-21T13:23:17;13.95;;;2.88;;
24801;SDS011;12898;50.520;12.152;2024-02-21T13:25:43;6.80;;;2.50;;
24801;SDS011;12898;50.520;12.152;2024-02-21T13:28:10;8.23;;;3.03;;
24801;SDS011;12898;50.520;12.152;2024-02-21T13:30:36;9.15;;;2.67;;
24801;SDS011;12898;50.520;12.152;2024-02-21T13:33:02;9.27;;;2.13;;
24801;SDS011;12898;50.520;12.152;2024-02-21T13:35:28;8.90;;;3.10;;
24801;SDS011;12898;50.520;12.152;2024-02-21T13:37:54;8.18;;;2.20;;
24801;SDS011;12898;50.520;12.152;2024-02-21T13:40:20;9.73;;;2.42;;
24801;SDS011;12898;50.520;12.152;2024-02-21T13:42:45;7.97;;;2.35;;
24801;SDS011;12898;50.520;12.152;2024-02-21T13:45:11;7.70;;;2.33;;
24801;SDS011;12898;50.520;12.152;2024-02-21T13:47:37;9.18;;;2.70;;
24801;SDS011;12898;50.520;12.152;2024-02-21T13:50:04;8.82;;;2.58;;
24801;SDS011;12898;50.520;12.152;2024-02-21T13:52:34;7.10;;;2.30;;
24801;SDS011;12898;50.520;12.152;2024-02-21T13:55:00;8.35;;;2.55;;
24801;SDS011;12898;50.520;12.152;2024-02-21T13:57:25;9.30;;;2.97;;
24801;SDS011;12898;50.520;12.152;2024-02-21T13:59:51;9.77;;;2.80;;
24801;SDS011;12898;50.520;12.152;2024-02-21T14:02:17;10.65;;;2.90;;
24801;SDS011;12898;50.520;12.152;2024-02-21T14:04:43;8.40;;;2.65;;
24801;SDS011;12898;50.520;12.152;2024-02-21T14:07:09;10.20;;;3.00;;
24801;SDS011;12898;50.520;12.152;2024-02-21T14:09:34;10.38;;;3.00;;
24801;SDS011;12898;50.520;12.152;2024-02-21T14:12:00;10.68;;;2.80;;
24801;SDS011;12898;50.520;12.152;2024-02-21T14:14:27;10.20;;;2.35;;
24801;SDS011;12898;50.520;12.152;2024-02-21T14:16:52;8.82;;;2.70;;
24801;SDS011;12898;50.520;12.152;2024-02-21T14:19:18;9.50;;;3.40;;
24801;SDS011;12898;50.520;12.152;2024-02-21T14:21:44;8.77;;;2.75;;
24801;SDS011;12898;50.520;12.152;2024-02-21T14:24:10;10.05;;;2.50;;